Zito Soares, Brazil
Current Conditions -  °F | °C
As of 11:00 AM on Monday 22 Dec 2014 (Local Time) from SBCF Reporting Station
Broken Clouds Broken Clouds  
Wind Chill: 75°   Ceiling: 1200
Heat Index: 75°   Visibility: 6mi
Dew Point: 68°   Wind: 5mph
Humidity: 78%   Direction: 340°NNW
Pressure: 30.09"   Gusts: NA
Location:  20.18°S, 42.76°W
Report Text: SBCF 221300Z 34004KT 9999 BKN012 BKN020 BKN080 24/20 Q1019
Loading
Personal Weather Stations






























Interactive Weather Map New forecast layout! Learn more

10-Day Weather Forecast

Advertisements
Track Severe Weather on mobile